createdAt,value
2018-09-06T00:00:55.511Z,1010.63
2018-09-06T00:01:55.494Z,1010.63
2018-09-06T00:02:55.449Z,1010.64
2018-09-06T00:03:55.438Z,1010.59
2018-09-06T00:04:55.525Z,1010.62
2018-09-06T00:05:55.424Z,1010.59
2018-09-06T00:06:55.434Z,1010.58
2018-09-06T00:07:55.404Z,1010.59
2018-09-06T00:08:55.381Z,1010.55
2018-09-06T00:09:55.376Z,1010.59
2018-09-06T00:10:55.361Z,1010.55
2018-09-06T00:11:55.413Z,1010.58
2018-09-06T00:12:55.346Z,1010.52
2018-09-06T00:13:55.327Z,1010.52
2018-09-06T00:14:55.315Z,1010.45
2018-09-06T00:15:55.337Z,1010.49
2018-09-06T00:16:55.302Z,1010.44
2018-09-06T00:17:55.291Z,1010.48
2018-09-06T00:18:55.314Z,1010.40
2018-09-06T00:19:55.266Z,1010.49
2018-09-06T00:20:55.294Z,1010.46
2018-09-06T00:21:55.245Z,1010.40
2018-09-06T00:22:55.237Z,1010.40
2018-09-06T00:23:55.226Z,1010.37
2018-09-06T00:24:55.259Z,1010.39
2018-09-06T00:25:55.202Z,1010.38
2018-09-06T00:26:55.185Z,1010.33
2018-09-06T00:27:55.254Z,1010.34
2018-09-06T00:28:55.162Z,1010.33
2018-09-06T00:29:55.164Z,1010.34
2018-09-06T00:30:55.144Z,1010.37
2018-09-06T00:31:55.132Z,1010.29
2018-09-06T00:32:55.156Z,1010.28
2018-09-06T00:33:55.116Z,1010.28
2018-09-06T00:34:55.119Z,1010.24
2018-09-06T00:35:55.090Z,1010.22
2018-09-06T00:36:55.110Z,1010.22
2018-09-06T00:37:55.077Z,1010.24
2018-09-06T00:38:55.059Z,1010.19
2018-09-06T00:39:55.044Z,1010.19
2018-09-06T00:40:55.032Z,1010.15
2018-09-06T00:41:55.056Z,1010.20
2018-09-06T00:42:55.015Z,1010.17
2018-09-06T00:43:54.999Z,1010.14
2018-09-06T00:44:54.988Z,1010.11
2018-09-06T00:45:55.007Z,1010.14
2018-09-06T00:46:54.971Z,1010.04
2018-09-06T00:47:54.967Z,1010.12
2018-09-06T00:48:54.944Z,1009.98
2018-09-06T00:49:54.936Z,1010.05
2018-09-06T00:50:54.959Z,1009.98
2018-09-06T00:51:54.916Z,1009.95
2018-09-06T00:52:54.906Z,1009.96
2018-09-06T00:53:54.930Z,1009.92
2018-09-06T00:54:54.916Z,1009.88
2018-09-06T00:55:54.863Z,1009.86
2018-09-06T00:56:54.855Z,1009.92
2018-09-06T00:57:54.843Z,1009.93
2018-09-06T00:58:54.863Z,1009.86
2018-09-06T00:59:54.822Z,1009.82
2018-09-06T01:00:54.815Z,1009.85
2018-09-06T01:01:54.809Z,1009.84
2018-09-06T01:02:54.788Z,1009.75
2018-09-06T01:03:54.807Z,1009.75
2018-09-06T01:04:54.768Z,1009.74
2018-09-06T01:05:54.757Z,1009.70
2018-09-06T01:06:54.755Z,1009.75
2018-09-06T01:07:54.768Z,1009.69
2018-09-06T01:08:54.756Z,1009.71
2018-09-06T01:09:54.735Z,1009.70
2018-09-06T01:10:54.707Z,1009.71
2018-09-06T01:11:54.690Z,1009.71
2018-09-06T01:12:54.694Z,1009.70
2018-09-06T01:13:54.699Z,1009.70
2018-09-06T01:14:54.689Z,1009.69
2018-09-06T01:15:54.655Z,1009.73
2018-09-06T01:16:54.639Z,1009.75
2018-09-06T01:17:54.626Z,1009.68
2018-09-06T01:18:54.652Z,1009.76
2018-09-06T01:19:54.604Z,1009.67
2018-09-06T01:20:54.599Z,1009.72
2018-09-06T01:21:54.583Z,1009.64
2018-09-06T01:22:54.575Z,1009.67
2018-09-06T01:23:54.609Z,1009.70
2018-09-06T01:24:54.553Z,1009.61
2018-09-06T01:25:54.561Z,1009.63
2018-09-06T01:26:54.537Z,1009.60
2018-09-06T01:27:54.518Z,1009.67
2018-09-06T01:28:54.565Z,1009.59
2018-09-06T01:29:54.496Z,1009.62
2018-09-06T01:30:54.524Z,1009.62
2018-09-06T01:31:54.480Z,1009.61
2018-09-06T01:32:54.477Z,1009.65
2018-09-06T01:33:54.489Z,1009.61
2018-09-06T01:34:54.481Z,1009.63
2018-09-06T01:35:54.461Z,1009.62
2018-09-06T01:36:54.447Z,1009.54
2018-09-06T01:37:54.423Z,1009.60
2018-09-06T01:38:54.399Z,1009.60
2018-09-06T01:39:54.417Z,1009.61
2018-09-06T01:40:54.420Z,1009.57
2018-09-06T01:41:54.368Z,1009.52
2018-09-06T01:42:54.360Z,1009.53
2018-09-06T01:43:54.365Z,1009.50
2018-09-06T01:44:54.897Z,1009.48
2018-09-06T01:45:54.338Z,1009.48
2018-09-06T01:46:54.316Z,1009.46
2018-09-06T01:47:54.337Z,1009.46
2018-09-06T01:48:54.291Z,1009.42
2018-09-06T01:49:54.321Z,1009.44
2018-09-06T01:50:54.263Z,1009.45
2018-09-06T01:51:54.254Z,1009.47
2018-09-06T01:52:54.244Z,1009.40
2018-09-06T01:53:54.270Z,1009.39
2018-09-06T01:54:54.243Z,1009.41
2018-09-06T01:55:54.244Z,1009.42
2018-09-06T01:56:54.202Z,1009.39
2018-09-06T01:57:54.189Z,1009.40
2018-09-06T01:58:54.183Z,1009.47
2018-09-06T01:59:54.167Z,1009.46
2018-09-06T02:00:54.282Z,1009.47
2018-09-06T02:01:54.148Z,1009.51
2018-09-06T02:02:54.938Z,1009.53
2018-09-06T02:03:54.144Z,1009.54
2018-09-06T02:04:54.110Z,1009.60
2018-09-06T02:05:54.133Z,1009.56
2018-09-06T02:06:54.110Z,1009.61
2018-09-06T02:07:54.106Z,1009.65
2018-09-06T02:08:54.068Z,1009.69
2018-09-06T02:09:54.058Z,1009.72
2018-09-06T02:10:54.050Z,1009.75
2018-09-06T02:11:54.039Z,1009.76
2018-09-06T02:12:54.065Z,1009.77
2018-09-06T02:13:54.019Z,1009.79
2018-09-06T02:14:54.035Z,1009.79
2018-09-06T02:15:53.995Z,1009.84
2018-09-06T02:16:53.979Z,1009.82
2018-09-06T02:17:53.976Z,1009.85
2018-09-06T02:18:53.992Z,1009.81
2018-09-06T02:19:53.943Z,1009.83
2018-09-06T02:20:53.945Z,1009.88
2018-09-06T02:21:53.930Z,1009.94
2018-09-06T02:22:53.946Z,1009.98
2018-09-06T02:23:53.927Z,1010.00
2018-09-06T02:24:53.979Z,1010.04
2018-09-06T02:25:53.886Z,1010.10
2018-09-06T02:26:53.869Z,1010.13
2018-09-06T02:27:53.869Z,1010.12
2018-09-06T02:28:53.855Z,1010.11
2018-09-06T02:29:53.875Z,1010.07
2018-09-06T02:30:53.832Z,1010.18
2018-09-06T02:31:53.819Z,1010.15
2018-09-06T02:32:53.814Z,1010.20
2018-09-06T02:33:53.796Z,1010.18
2018-09-06T02:34:53.822Z,1010.22
2018-09-06T02:35:53.774Z,1010.22
2018-09-06T02:36:53.765Z,1010.24
2018-09-06T02:37:53.772Z,1010.27
2018-09-06T02:38:53.742Z,1010.34
2018-09-06T02:39:53.771Z,1010.23
2018-09-06T02:40:53.724Z,1010.24
2018-09-06T02:41:53.706Z,1010.24
2018-09-06T02:42:53.706Z,1010.26
2018-09-06T02:43:53.782Z,1010.29
2018-09-06T02:44:53.779Z,1010.24
2018-09-06T02:45:53.666Z,1010.27
2018-09-06T02:46:53.650Z,1010.19
2018-09-06T02:47:53.639Z,1010.19
2018-09-06T02:48:53.633Z,1010.22
2018-09-06T02:49:53.655Z,1010.20
2018-09-06T02:50:53.608Z,1010.13
2018-09-06T02:51:53.601Z,1010.10
2018-09-06T02:52:53.588Z,1010.02
2018-09-06T02:53:53.628Z,1010.00
2018-09-06T02:54:53.593Z,1009.97
2018-09-06T02:55:53.554Z,1009.94
2018-09-06T02:56:53.549Z,1009.86
2018-09-06T02:57:53.563Z,1009.91
2018-09-06T02:58:53.520Z,1009.95
2018-09-06T02:59:53.513Z,1009.89
2018-09-06T03:00:53.539Z,1009.95
2018-09-06T03:01:53.486Z,1009.97
2018-09-06T03:02:53.478Z,1009.96
2018-09-06T03:03:53.472Z,1009.90
2018-09-06T03:04:53.468Z,1009.92
2018-09-06T03:05:53.486Z,1009.88
2018-09-06T03:06:53.432Z,1009.87
2018-09-06T03:07:53.425Z,1009.82
2018-09-06T03:08:53.441Z,1009.81
2018-09-06T03:09:53.398Z,1009.80
2018-09-06T03:10:53.388Z,1009.80
2018-09-06T03:11:53.379Z,1009.75
2018-09-06T03:12:53.375Z,1009.78
2018-09-06T03:13:53.411Z,1009.74
2018-09-06T03:14:53.345Z,1009.72
2018-09-06T03:15:53.362Z,1009.69
2018-09-06T03:16:53.354Z,1009.66
2018-09-06T03:17:53.305Z,1009.67
2018-09-06T03:18:53.295Z,1009.67
2018-09-06T03:19:53.288Z,1009.63
2018-09-06T03:20:53.304Z,1009.66
2018-09-06T03:21:53.298Z,1009.57
2018-09-06T03:22:53.268Z,1009.61
2018-09-06T03:23:53.288Z,1009.55
2018-09-06T03:24:53.229Z,1009.57
2018-09-06T03:25:53.249Z,1009.53
2018-09-06T03:26:53.206Z,1009.55
2018-09-06T03:27:53.199Z,1009.56
2018-09-06T03:28:53.213Z,1009.53
2018-09-06T03:29:53.173Z,1009.57
2018-09-06T03:30:53.202Z,1009.54
2018-09-06T03:31:53.153Z,1009.53
2018-09-06T03:32:53.152Z,1009.55
2018-09-06T03:33:53.159Z,1009.53
2018-09-06T03:34:53.173Z,1009.49
2018-09-06T03:35:53.111Z,1009.48
2018-09-06T03:36:53.203Z,1009.48
2018-09-06T03:37:53.127Z,1009.52
2018-09-06T03:38:53.080Z,1009.59
2018-09-06T03:39:53.097Z,1009.54
2018-09-06T03:40:53.049Z,1009.57
2018-09-06T03:41:53.143Z,1009.52
2018-09-06T03:42:53.051Z,1009.57
2018-09-06T03:43:53.018Z,1009.59
2018-09-06T03:44:53.043Z,1009.54
2018-09-06T03:45:52.997Z,1009.58
2018-09-06T03:46:52.982Z,1009.55
2018-09-06T03:47:52.976Z,1009.58
2018-09-06T03:48:52.991Z,1009.59
2018-09-06T03:49:52.982Z,1009.58
2018-09-06T03:50:52.948Z,1009.59
2018-09-06T03:51:52.931Z,1009.57
2018-09-06T03:52:52.942Z,1009.62
2018-09-06T03:53:52.925Z,1009.61
2018-09-06T03:54:52.989Z,1009.64
2018-09-06T03:55:52.917Z,1009.63
2018-09-06T03:56:52.871Z,1009.65
2018-09-06T03:57:52.862Z,1009.62
2018-09-06T03:58:59.910Z,1009.51
2018-09-06T03:59:52.843Z,1009.52
2018-09-06T04:00:52.954Z,1009.50
2018-09-06T04:01:52.814Z,1009.49
2018-09-06T04:02:52.838Z,1009.40
2018-09-06T04:03:52.822Z,1009.37
2018-09-06T04:04:52.785Z,1009.37
2018-09-06T04:05:52.772Z,1009.39
2018-09-06T04:06:52.759Z,1009.55
2018-09-06T04:07:52.788Z,1009.51
2018-09-06T04:08:52.737Z,1009.51
2018-09-06T04:09:52.754Z,1009.50
2018-09-06T04:10:52.720Z,1009.47
2018-09-06T04:11:52.710Z,1009.61
2018-09-06T04:12:52.696Z,1009.56
2018-09-06T04:13:52.713Z,1009.54
2018-09-06T04:14:52.674Z,1009.51
2018-09-06T04:15:52.656Z,1009.44
2018-09-06T04:16:52.702Z,1009.40
2018-09-06T04:17:52.633Z,1009.44
2018-09-06T04:18:52.627Z,1009.44
2018-09-06T04:19:52.667Z,1009.51
2018-09-06T04:20:52.605Z,1009.57
2018-09-06T04:21:52.626Z,1009.51
2018-09-06T04:22:52.583Z,1009.58
2018-09-06T04:23:52.570Z,1009.54
2018-09-06T04:24:52.559Z,1009.59
2018-09-06T04:25:52.551Z,1009.53
2018-09-06T04:26:52.571Z,1009.59
2018-09-06T04:27:52.533Z,1009.53
2018-09-06T04:28:52.511Z,1009.55
2018-09-06T04:29:52.529Z,1009.63
2018-09-06T04:30:52.487Z,1009.65
2018-09-06T04:31:52.480Z,1009.67
2018-09-06T04:32:52.472Z,1009.68
2018-09-06T04:33:52.508Z,1009.67
2018-09-06T04:34:52.445Z,1009.77
2018-09-06T04:35:52.509Z,1009.66
2018-09-06T04:36:52.427Z,1009.70
2018-09-06T04:37:52.413Z,1009.67
2018-09-06T04:38:52.442Z,1009.70
2018-09-06T04:39:52.394Z,1009.72
2018-09-06T04:40:52.406Z,1009.74
2018-09-06T04:41:52.363Z,1009.73
2018-09-06T04:42:52.360Z,1009.71
2018-09-06T04:43:52.417Z,1009.68
2018-09-06T04:44:52.333Z,1009.73
2018-09-06T04:45:52.345Z,1009.68
2018-09-06T04:46:52.311Z,1009.77
2018-09-06T04:47:52.301Z,1009.79
2018-09-06T04:48:52.322Z,1009.75
2018-09-06T04:49:52.277Z,1009.76
2018-09-06T04:50:52.306Z,1009.71
2018-09-06T04:51:52.279Z,1009.73
2018-09-06T04:52:52.244Z,1009.78
2018-09-06T04:53:52.240Z,1009.81
2018-09-06T04:54:52.228Z,1009.78
2018-09-06T04:55:52.247Z,1009.77
2018-09-06T04:56:52.299Z,1009.76
2018-09-06T04:57:52.192Z,1009.70
2018-09-06T04:58:52.212Z,1009.73
2018-09-06T04:59:52.239Z,1009.73
2018-09-06T05:00:52.157Z,1009.74
2018-09-06T05:01:52.146Z,1009.74
2018-09-06T05:02:52.129Z,1009.78
2018-09-06T05:03:52.120Z,1009.75
2018-09-06T05:04:52.142Z,1009.81
2018-09-06T05:05:52.127Z,1009.75
2018-09-06T05:06:52.091Z,1009.81
2018-09-06T05:07:52.080Z,1009.83
2018-09-06T05:08:52.065Z,1009.85
2018-09-06T05:09:52.083Z,1009.85
2018-09-06T05:10:52.063Z,1009.85
2018-09-06T05:11:52.059Z,1009.83
2018-09-06T05:12:52.096Z,1009.88
2018-09-06T05:13:52.007Z,1009.82
2018-09-06T05:14:52.001Z,1009.84
2018-09-06T05:15:52.025Z,1009.88
2018-09-06T05:16:52.018Z,1009.85
2018-09-06T05:17:51.967Z,1009.81
2018-09-06T05:18:51.982Z,1009.86
2018-09-06T05:19:51.943Z,1009.89
2018-09-06T05:20:51.932Z,1009.85
2018-09-06T05:21:52.025Z,1009.81
2018-09-06T05:22:51.945Z,1009.86
2018-09-06T05:23:51.900Z,1009.85
2018-09-06T05:24:51.896Z,1009.83
2018-09-06T05:25:51.881Z,1009.86
2018-09-06T05:26:51.868Z,1009.82
2018-09-06T05:27:51.884Z,1009.89
2018-09-06T05:28:51.846Z,1009.87
2018-09-06T05:29:51.830Z,1009.81
2018-09-06T05:30:51.912Z,1009.81
2018-09-06T05:31:51.809Z,1009.83
2018-09-06T05:32:51.827Z,1009.78
2018-09-06T05:33:51.786Z,1009.76
2018-09-06T05:34:51.777Z,1009.86
2018-09-06T05:35:51.808Z,1009.78
2018-09-06T05:36:51.797Z,1009.73
2018-09-06T05:37:51.741Z,1009.76
2018-09-06T05:38:51.771Z,1009.70
2018-09-06T05:39:51.799Z,1009.73
2018-09-06T05:40:51.714Z,1009.68
2018-09-06T05:41:51.699Z,1009.75
2018-09-06T05:42:51.684Z,1009.72
2018-09-06T05:43:51.712Z,1009.63
2018-09-06T05:44:51.663Z,1009.66
2018-09-06T05:45:51.666Z,1009.67
2018-09-06T05:46:51.664Z,1009.64
2018-09-06T05:47:51.632Z,1009.64
2018-09-06T05:48:51.654Z,1009.65
2018-09-06T05:49:51.607Z,1009.58
2018-09-06T05:50:51.598Z,1009.59
2018-09-06T05:51:51.598Z,1009.55
2018-09-06T05:52:51.575Z,1009.60
2018-09-06T05:53:51.606Z,1009.56
2018-09-06T05:54:51.555Z,1009.55
2018-09-06T05:55:51.579Z,1009.52
2018-09-06T05:56:51.531Z,1009.56
2018-09-06T05:57:51.522Z,1009.44
2018-09-06T05:58:51.554Z,1009.44
2018-09-06T05:59:51.527Z,1009.49
2018-09-06T06:00:51.502Z,1009.50
2018-09-06T06:01:51.498Z,1009.43
2018-09-06T06:02:51.459Z,1009.43
2018-09-06T06:03:51.459Z,1009.50
2018-09-06T06:04:51.436Z,1009.52
2018-09-06T06:05:51.455Z,1009.49
2018-09-06T06:06:51.413Z,1009.51
2018-09-06T06:07:51.407Z,1009.45
2018-09-06T06:08:51.399Z,1009.44
2018-09-06T06:09:51.430Z,1009.44
2018-09-06T06:10:51.373Z,1009.37
2018-09-06T06:11:51.540Z,1009.32
2018-09-06T06:12:51.349Z,1009.38
2018-09-06T06:13:51.373Z,1009.35
2018-09-06T06:14:51.370Z,1009.33
2018-09-06T06:15:51.321Z,1009.43
2018-09-06T06:16:51.335Z,1009.38
2018-09-06T06:17:51.294Z,1009.32
2018-09-06T06:18:51.284Z,1009.31
2018-09-06T06:19:51.307Z,1009.31
2018-09-06T06:20:51.324Z,1009.28
2018-09-06T06:21:51.249Z,1009.23
2018-09-06T06:22:51.237Z,1009.19
2018-09-06T06:23:51.224Z,1009.18
2018-09-06T06:24:51.212Z,1009.17
2018-09-06T06:25:51.250Z,1009.18
2018-09-06T06:26:51.200Z,1009.13
2018-09-06T06:27:51.179Z,1009.13
2018-09-06T06:28:51.170Z,1009.11
2018-09-06T06:29:51.157Z,1009.09
2018-09-06T06:30:51.173Z,1009.06
2018-09-06T06:31:51.215Z,1009.04
2018-09-06T06:32:51.168Z,1009.06
2018-09-06T06:33:51.147Z,1009.02
2018-09-06T06:34:51.100Z,1008.94
2018-09-06T06:35:51.163Z,1009.01
2018-09-06T06:36:51.082Z,1009.06
2018-09-06T06:37:51.098Z,1009.06
2018-09-06T06:38:51.057Z,1008.99
2018-09-06T06:39:51.053Z,1009.00
2018-09-06T06:40:51.068Z,1008.93
2018-09-06T06:41:51.026Z,1008.91
2018-09-06T06:42:51.012Z,1008.90
2018-09-06T06:43:51.002Z,1008.88
2018-09-06T06:44:50.993Z,1008.87
2018-09-06T06:45:51.011Z,1008.83
2018-09-06T06:46:50.966Z,1008.80
2018-09-06T06:47:50.957Z,1008.79
2018-09-06T06:48:50.947Z,1008.90
2018-09-06T06:49:50.963Z,1008.81
2018-09-06T06:50:50.921Z,1008.87
2018-09-06T06:51:50.912Z,1008.83
2018-09-06T06:52:50.908Z,1008.89
2018-09-06T06:53:50.891Z,1008.84
2018-09-06T06:54:50.939Z,1008.84
2018-09-06T06:55:50.869Z,1008.87
2018-09-06T06:56:50.851Z,1008.90
2018-09-06T06:57:50.846Z,1008.91
2018-09-06T06:58:50.840Z,1008.90
2018-09-06T06:59:50.859Z,1008.97
2018-09-06T07:00:50.814Z,1009.02
2018-09-06T07:01:50.799Z,1009.05
2018-09-06T07:02:50.792Z,1009.10
2018-09-06T07:03:50.780Z,1009.09
2018-09-06T07:04:50.797Z,1009.13
2018-09-06T07:05:50.756Z,1009.08
2018-09-06T07:06:50.831Z,1009.15
2018-09-06T07:07:50.731Z,1009.13
2018-09-06T07:08:50.751Z,1009.09
2018-09-06T07:09:50.712Z,1009.09
2018-09-06T07:10:50.734Z,1009.11
2018-09-06T07:11:50.687Z,1009.11
2018-09-06T07:12:50.676Z,1009.13
2018-09-06T07:13:50.709Z,1009.13
2018-09-06T07:14:50.653Z,1009.13
2018-09-06T07:15:50.652Z,1009.08
2018-09-06T07:16:50.629Z,1009.10
2018-09-06T07:17:50.626Z,1009.06
2018-09-06T07:18:50.647Z,1009.01
2018-09-06T07:19:50.602Z,1009.00
2018-09-06T07:20:50.618Z,1009.01
2018-09-06T07:21:50.602Z,1009.03
2018-09-06T07:22:50.565Z,1009.00
2018-09-06T07:23:50.555Z,1008.99
2018-09-06T07:24:50.543Z,1009.02
2018-09-06T07:25:50.533Z,1009.02
2018-09-06T07:26:50.550Z,1009.03
2018-09-06T07:27:50.510Z,1009.03
2018-09-06T07:28:50.497Z,1009.03
2018-09-06T07:29:50.519Z,1009.17
2018-09-06T07:30:50.486Z,1009.06
2018-09-06T07:31:50.465Z,1009.03
2018-09-06T07:32:50.459Z,1009.09
2018-09-06T07:33:50.473Z,1009.00
2018-09-06T07:34:50.444Z,1009.03
2018-09-06T07:35:50.453Z,1009.02
2018-09-06T07:36:50.416Z,1009.04
2018-09-06T07:37:50.434Z,1009.04
2018-09-06T07:38:50.397Z,1009.06
2018-09-06T07:39:50.381Z,1009.06
2018-09-06T07:40:50.366Z,1009.08
2018-09-06T07:41:50.392Z,1009.08
2018-09-06T07:42:50.346Z,1009.07
2018-09-06T07:43:50.360Z,1009.06
2018-09-06T07:44:50.325Z,1009.10
2018-09-06T07:45:50.307Z,1009.10
2018-09-06T07:46:50.351Z,1009.14
2018-09-06T07:47:50.293Z,1009.12
2018-09-06T07:48:50.322Z,1009.14
2018-09-06T07:49:50.263Z,1009.20
2018-09-06T07:50:51.036Z,1009.10
2018-09-06T07:51:50.240Z,1009.11
2018-09-06T07:52:50.232Z,1009.09
2018-09-06T07:53:50.248Z,1009.12
2018-09-06T07:54:50.209Z,1009.08
2018-09-06T07:55:50.202Z,1009.10
2018-09-06T07:56:50.226Z,1009.09
2018-09-06T07:57:50.233Z,1009.16
2018-09-06T07:58:50.205Z,1009.17
2018-09-06T07:59:50.180Z,1009.21
2018-09-06T08:00:50.182Z,1009.21
2018-09-06T08:01:50.144Z,1009.20
2018-09-06T08:02:50.130Z,1009.23
2018-09-06T08:03:50.109Z,1009.24
2018-09-06T08:04:50.100Z,1009.20
2018-09-06T08:05:50.118Z,1009.20
2018-09-06T08:06:50.074Z,1009.20
2018-09-06T08:07:50.066Z,1009.19
2018-09-06T08:08:50.049Z,1009.23
2018-09-06T08:09:50.042Z,1009.22
2018-09-06T08:10:50.064Z,1009.27
2018-09-06T08:11:50.016Z,1009.27
2018-09-06T08:12:50.008Z,1009.29
2018-09-06T08:13:49.998Z,1009.26
2018-09-06T08:14:49.987Z,1009.24
2018-09-06T08:15:50.000Z,1009.28
2018-09-06T08:16:49.961Z,1009.32
2018-09-06T08:17:49.951Z,1009.34
2018-09-06T08:18:50.015Z,1009.29
2018-09-06T08:19:49.933Z,1009.26
2018-09-06T08:20:49.952Z,1009.29
2018-09-06T08:21:49.911Z,1009.31
2018-09-06T08:22:49.925Z,1009.35
2018-09-06T08:23:49.888Z,1009.28
2018-09-06T08:24:49.873Z,1009.41
2018-09-06T08:25:49.892Z,1009.31
2018-09-06T08:26:49.851Z,1009.34
2018-09-06T08:27:49.836Z,1009.34
2018-09-06T08:28:49.829Z,1009.35
2018-09-06T08:29:49.824Z,1009.38
2018-09-06T08:30:49.962Z,1009.36
2018-09-06T08:31:49.793Z,1009.32
2018-09-06T08:32:49.813Z,1009.32
2018-09-06T08:33:49.767Z,1009.32
2018-09-06T08:34:49.763Z,1009.30
2018-09-06T08:35:49.753Z,1009.28
2018-09-06T08:36:49.796Z,1009.27
2018-09-06T08:37:49.779Z,1009.28
2018-09-06T08:38:49.717Z,1009.30
2018-09-06T08:39:49.704Z,1009.34
2018-09-06T08:40:49.692Z,1009.24
2018-09-06T08:41:49.689Z,1009.30
2018-09-06T08:42:49.698Z,1009.31
2018-09-06T08:43:49.657Z,1009.28
2018-09-06T08:44:49.675Z,1009.37
2018-09-06T08:45:49.641Z,1009.30
2018-09-06T08:46:49.665Z,1009.39
2018-09-06T08:47:49.619Z,1009.32
2018-09-06T08:48:49.607Z,1009.28
2018-09-06T08:49:49.598Z,1009.31
2018-09-06T08:50:49.616Z,1009.26
2018-09-06T08:51:49.642Z,1009.24
2018-09-06T08:52:49.557Z,1009.27
2018-09-06T08:53:49.551Z,1009.24
2018-09-06T08:54:49.539Z,1009.24
2018-09-06T08:55:49.559Z,1009.26
2018-09-06T08:56:49.509Z,1009.26
2018-09-06T08:57:49.511Z,1009.26
2018-09-06T08:58:49.496Z,1009.23
2018-09-06T08:59:49.483Z,1009.25
2018-09-06T09:00:49.508Z,1009.24
2018-09-06T09:01:49.456Z,1009.21
2018-09-06T09:02:49.667Z,1009.22
2018-09-06T09:03:49.439Z,1009.21
2018-09-06T09:04:49.433Z,1009.27
2018-09-06T09:05:49.468Z,1009.20
2018-09-06T09:06:49.407Z,1009.22
2018-09-06T09:07:49.390Z,1009.22
2018-09-06T09:08:49.402Z,1009.25
2018-09-06T09:09:49.404Z,1009.26
2018-09-06T09:10:49.404Z,1009.21
2018-09-06T09:11:49.347Z,1009.24
2018-09-06T09:12:49.391Z,1009.27
2018-09-06T09:13:49.326Z,1009.23
2018-09-06T09:14:49.317Z,1009.27
2018-09-06T09:15:49.354Z,1009.27
2018-09-06T09:16:49.288Z,1009.26
2018-09-06T09:17:49.281Z,1009.26
2018-09-06T09:18:49.280Z,1009.25
2018-09-06T09:19:49.281Z,1009.23
2018-09-06T09:20:49.288Z,1009.26
2018-09-06T09:21:49.269Z,1009.26
2018-09-06T09:22:49.221Z,1009.26
2018-09-06T09:23:49.223Z,1009.25
2018-09-06T09:24:49.238Z,1009.20
2018-09-06T09:25:49.231Z,1009.16
2018-09-06T09:26:49.216Z,1009.17
2018-09-06T09:27:49.205Z,1009.15
2018-09-06T09:28:49.165Z,1009.14
2018-09-06T09:29:49.144Z,1009.14
2018-09-06T09:30:49.161Z,1009.20
2018-09-06T09:31:49.125Z,1009.18
2018-09-06T09:32:49.113Z,1009.23
2018-09-06T09:33:49.137Z,1009.18
2018-09-06T09:34:49.090Z,1009.19
2018-09-06T09:35:49.163Z,1009.22
2018-09-06T09:36:49.073Z,1009.17
2018-09-06T09:37:49.094Z,1009.16
2018-09-06T09:38:49.047Z,1009.19
2018-09-06T09:39:49.036Z,1009.20
2018-09-06T09:40:49.027Z,1009.15
2018-09-06T09:41:49.052Z,1009.14
2018-09-06T09:42:49.002Z,1009.20
2018-09-06T09:43:48.991Z,1009.20
2018-09-06T09:44:48.978Z,1009.17
2018-09-06T09:45:49.001Z,1009.09
2018-09-06T09:47:48.512Z,1009.13
2018-09-06T09:48:48.532Z,1009.06
2018-09-06T09:49:48.491Z,1009.06
2018-09-06T09:50:48.484Z,1009.14
2018-09-06T09:51:48.469Z,1009.13
2018-09-06T09:52:48.453Z,1009.09
2018-09-06T09:53:48.476Z,1009.11
2018-09-06T09:54:48.431Z,1009.10
2018-09-06T09:55:48.424Z,1009.22
2018-09-06T09:56:48.414Z,1009.12
2018-09-06T09:57:48.435Z,1009.18
2018-09-06T09:58:48.425Z,1009.12
2018-09-06T09:59:48.391Z,1009.14
2018-09-06T10:00:48.369Z,1009.13
2018-09-06T10:01:48.367Z,1009.09
2018-09-06T10:02:48.352Z,1009.17
2018-09-06T10:03:48.411Z,1009.09
2018-09-06T10:04:48.330Z,1009.12
2018-09-06T10:05:48.312Z,1009.11
2018-09-06T10:06:48.303Z,1009.14
2018-09-06T10:07:48.333Z,1009.05
2018-09-06T10:08:48.312Z,1009.03
2018-09-06T10:09:48.266Z,1009.07
2018-09-06T10:10:48.260Z,1009.05
2018-09-06T10:11:48.255Z,1009.07
2018-09-06T10:12:48.241Z,1009.03
2018-09-06T10:13:48.256Z,1009.06
2018-09-06T10:14:48.209Z,1009.05
2018-09-06T10:15:48.743Z,1009.04
2018-09-06T10:16:48.192Z,1009.04
2018-09-06T10:17:48.215Z,1009.08
2018-09-06T10:18:48.166Z,1009.06
2018-09-06T10:19:48.154Z,1009.06
2018-09-06T10:20:48.138Z,1009.07
2018-09-06T10:21:48.126Z,1009.06
2018-09-06T10:22:48.158Z,1009.01
2018-09-06T10:23:48.118Z,1009.01
2018-09-06T10:24:48.095Z,1009.02
2018-09-06T10:25:48.136Z,1008.95
2018-09-06T10:26:48.069Z,1008.94
2018-09-06T10:27:48.060Z,1008.96
2018-09-06T10:28:48.084Z,1009.02
2018-09-06T10:29:48.043Z,1009.03
2018-09-06T10:30:48.042Z,1008.99
2018-09-06T10:31:48.030Z,1009.00
2018-09-06T10:32:48.008Z,1008.97
2018-09-06T10:33:48.027Z,1008.98
2018-09-06T10:34:48.013Z,1008.97
2018-09-06T10:35:47.985Z,1008.98
2018-09-06T10:36:47.960Z,1008.99
2018-09-06T10:37:47.954Z,1008.90
2018-09-06T10:38:47.953Z,1008.94
2018-09-06T10:39:48.031Z,1008.97
2018-09-06T10:40:47.924Z,1008.93
2018-09-06T10:41:47.907Z,1009.00
2018-09-06T10:42:47.892Z,1008.94
2018-09-06T10:43:47.884Z,1008.99
2018-09-06T10:44:47.894Z,1009.00
2018-09-06T10:45:47.889Z,1009.04
2018-09-06T10:46:47.854Z,1009.00
2018-09-06T10:47:47.878Z,1008.97
2018-09-06T10:48:47.829Z,1009.00
2018-09-06T10:49:47.822Z,1008.98
2018-09-06T10:50:47.855Z,1008.91
2018-09-06T10:51:47.791Z,1008.96
2018-09-06T10:52:47.786Z,1008.94
2018-09-06T10:53:47.784Z,1008.97
2018-09-06T10:54:47.756Z,1008.95
2018-09-06T10:55:47.895Z,1008.92
2018-09-06T10:56:47.740Z,1008.99
2018-09-06T10:57:48.291Z,1008.92
2018-09-06T10:58:47.739Z,1008.95
2018-09-06T10:59:47.701Z,1008.93
2018-09-06T11:00:47.809Z,1008.83
2018-09-06T11:01:47.677Z,1008.87
2018-09-06T11:02:47.664Z,1008.89
2018-09-06T11:03:47.653Z,1008.92
2018-09-06T11:04:47.672Z,1008.92
2018-09-06T11:05:47.664Z,1008.90
2018-09-06T11:06:47.616Z,1008.87
2018-09-06T11:07:47.703Z,1008.83
2018-09-06T11:08:47.602Z,1008.84
2018-09-06T11:09:47.584Z,1008.83
2018-09-06T11:10:47.615Z,1008.87
2018-09-06T11:11:47.636Z,1008.84
2018-09-06T11:12:47.580Z,1008.78
2018-09-06T11:13:47.540Z,1008.81
2018-09-06T11:14:47.534Z,1008.75
2018-09-06T11:15:47.521Z,1008.79
2018-09-06T11:16:47.547Z,1008.77
2018-09-06T11:17:47.506Z,1008.76
2018-09-06T11:18:47.482Z,1008.83
2018-09-06T11:19:47.569Z,1008.76
2018-09-06T11:20:47.496Z,1008.75
2018-09-06T11:21:47.555Z,1008.74
2018-09-06T11:22:47.500Z,1008.78
2018-09-06T11:23:47.424Z,1008.77
2018-09-06T11:24:47.415Z,1008.79
2018-09-06T11:25:47.436Z,1008.72
2018-09-06T11:26:47.391Z,1008.77
2018-09-06T11:27:47.396Z,1008.77
2018-09-06T11:28:47.382Z,1008.73
2018-09-06T11:29:47.372Z,1008.75
2018-09-06T11:30:47.387Z,1008.72
2018-09-06T11:31:47.335Z,1008.70
2018-09-06T11:32:47.382Z,1008.69
2018-09-06T11:33:47.323Z,1008.70
2018-09-06T11:34:47.307Z,1008.73
2018-09-06T11:35:47.294Z,1008.70
2018-09-06T11:36:47.284Z,1008.73
2018-09-06T11:37:47.290Z,1008.77
2018-09-06T11:38:47.265Z,1008.72
2018-09-06T11:39:47.245Z,1008.77
2018-09-06T11:40:47.243Z,1008.75
2018-09-06T11:41:47.262Z,1008.77
2018-09-06T11:42:47.214Z,1008.75
2018-09-06T11:43:47.206Z,1008.74
2018-09-06T11:44:47.193Z,1008.77
2018-09-06T11:45:47.184Z,1008.79
2018-09-06T11:46:47.318Z,1008.79
2018-09-06T11:47:47.260Z,1008.81
2018-09-06T11:48:47.175Z,1008.79
2018-09-06T11:49:47.138Z,1008.82
2018-09-06T11:50:47.119Z,1008.83
2018-09-06T11:51:47.112Z,1008.80
2018-09-06T11:52:47.134Z,1008.85
2018-09-06T11:53:47.107Z,1008.81
2018-09-06T11:54:47.109Z,1008.79
2018-09-06T11:55:47.104Z,1008.80
2018-09-06T11:56:47.055Z,1008.80
2018-09-06T11:57:47.050Z,1008.84
2018-09-06T11:58:47.039Z,1008.75
2018-09-06T11:59:47.082Z,1008.80
2018-09-06T12:00:47.013Z,1008.79
2018-09-06T12:01:46.998Z,1008.81
2018-09-06T12:02:46.990Z,1008.80
2018-09-06T12:03:46.982Z,1008.78
2018-09-06T12:04:47.012Z,1008.80
2018-09-06T12:05:46.997Z,1008.78
2018-09-06T12:06:46.949Z,1008.80